sensor_id;sensor_type;location;lat;lon;timestamp;P1;durP1;ratioP1;P2;durP2;ratioP2
287;SDS011;128;48.770;9.198;2024-03-23T00:54:30;7.37;;;2.47;;
287;SDS011;128;48.770;9.198;2024-03-23T00:56:56;7.53;;;2.37;;
287;SDS011;128;48.770;9.198;2024-03-23T00:59:22;5.50;;;2.67;;
287;SDS011;128;48.770;9.198;2024-03-23T01:01:52;10.63;;;2.40;;
287;SDS011;128;48.770;9.198;2024-03-23T01:04:18;5.17;;;2.10;;
287;SDS011;128;48.770;9.198;2024-03-23T01:06:44;3.70;;;2.53;;
287;SDS011;128;48.770;9.198;2024-03-23T01:09:10;4.23;;;2.03;;
287;SDS011;128;48.770;9.198;2024-03-23T01:11:36;5.13;;;2.40;;
287;SDS011;128;48.770;9.198;2024-03-23T01:14:02;7.60;;;2.97;;
287;SDS011;128;48.770;9.198;2024-03-23T01:16:28;3.80;;;2.40;;
287;SDS011;128;48.770;9.198;2024-03-23T01:18:54;3.87;;;2.13;;
287;SDS011;128;48.770;9.198;2024-03-23T01:21:20;4.50;;;2.57;;
287;SDS011;128;48.770;9.198;2024-03-23T01:23:46;4.00;;;2.10;;
287;SDS011;128;48.770;9.198;2024-03-23T01:26:12;5.37;;;2.00;;
287;SDS011;128;48.770;9.198;2024-03-23T01:28:38;3.83;;;2.10;;
287;SDS011;128;48.770;9.198;2024-03-23T01:31:04;3.63;;;2.00;;
287;SDS011;128;48.770;9.198;2024-03-23T01:33:30;3.50;;;1.97;;
287;SDS011;128;48.770;9.198;2024-03-23T01:35:56;5.23;;;2.43;;
287;SDS011;128;48.770;9.198;2024-03-23T01:38:22;3.20;;;2.10;;
287;SDS011;128;48.770;9.198;2024-03-23T01:40:48;9.80;;;2.60;;
287;SDS011;128;48.770;9.198;2024-03-23T01:43:14;4.03;;;2.27;;
287;SDS011;128;48.770;9.198;2024-03-23T01:45:40;4.87;;;2.60;;
287;SDS011;128;48.770;9.198;2024-03-23T01:48:06;5.67;;;2.57;;
287;SDS011;128;48.770;9.198;2024-03-23T01:50:32;8.63;;;2.30;;
287;SDS011;128;48.770;9.198;2024-03-23T01:52:59;4.60;;;2.47;;
287;SDS011;128;48.770;9.198;2024-03-23T01:55:26;4.70;;;2.47;;
287;SDS011;128;48.770;9.198;2024-03-23T01:57:52;8.80;;;2.73;;
287;SDS011;128;48.770;9.198;2024-03-23T02:00:18;3.63;;;2.10;;
287;SDS011;128;48.770;9.198;2024-03-23T02:02:44;4.10;;;2.50;;
287;SDS011;128;48.770;9.198;2024-03-23T02:05:11;7.60;;;2.80;;
287;SDS011;128;48.770;9.198;2024-03-23T02:07:38;4.87;;;2.33;;
287;SDS011;128;48.770;9.198;2024-03-23T02:10:05;7.40;;;2.70;;
287;SDS011;128;48.770;9.198;2024-03-23T02:12:31;7.73;;;2.30;;
287;SDS011;128;48.770;9.198;2024-03-23T02:14:57;6.00;;;2.50;;
287;SDS011;128;48.770;9.198;2024-03-23T02:17:23;5.63;;;3.00;;
287;SDS011;128;48.770;9.198;2024-03-23T02:19:50;3.37;;;2.37;;
287;SDS011;128;48.770;9.198;2024-03-23T02:22:16;6.00;;;2.60;;
287;SDS011;128;48.770;9.198;2024-03-23T02:24:42;4.20;;;2.60;;
287;SDS011;128;48.770;9.198;2024-03-23T02:27:08;5.50;;;2.40;;
287;SDS011;128;48.770;9.198;2024-03-23T02:29:34;6.27;;;2.53;;
287;SDS011;128;48.770;9.198;2024-03-23T02:32:00;3.13;;;2.17;;
287;SDS011;128;48.770;9.198;2024-03-23T02:34:26;6.20;;;2.70;;
287;SDS011;128;48.770;9.198;2024-03-23T02:36:52;4.73;;;2.77;;
287;SDS011;128;48.770;9.198;2024-03-23T02:39:18;3.90;;;2.37;;
287;SDS011;128;48.770;9.198;2024-03-23T02:41:44;4.80;;;2.77;;
287;SDS011;128;48.770;9.198;2024-03-23T02:44:10;4.70;;;2.50;;
287;SDS011;128;48.770;9.198;2024-03-23T02:46:39;7.20;;;2.80;;
287;SDS011;128;48.770;9.198;2024-03-23T02:49:05;5.63;;;2.87;;
287;SDS011;128;48.770;9.198;2024-03-23T02:51:31;7.57;;;3.03;;
287;SDS011;128;48.770;9.198;2024-03-23T02:53:57;3.70;;;2.77;;
287;SDS011;128;48.770;9.198;2024-03-23T02:56:23;12.40;;;3.47;;
287;SDS011;128;48.770;9.198;2024-03-23T02:58:49;4.77;;;2.47;;
287;SDS011;128;48.770;9.198;2024-03-23T03:01:15;5.00;;;2.50;;
287;SDS011;128;48.770;9.198;2024-03-23T03:03:41;3.27;;;2.67;;
287;SDS011;128;48.770;9.198;2024-03-23T03:06:07;6.40;;;3.40;;
287;SDS011;128;48.770;9.198;2024-03-23T03:08:33;5.20;;;2.87;;
287;SDS011;128;48.770;9.198;2024-03-23T03:10:59;4.90;;;2.87;;
287;SDS011;128;48.770;9.198;2024-03-23T03:13:25;7.70;;;3.30;;
287;SDS011;128;48.770;9.198;2024-03-23T03:15:51;4.20;;;2.50;;
287;SDS011;128;48.770;9.198;2024-03-23T03:18:18;7.10;;;3.00;;
287;SDS011;128;48.770;9.198;2024-03-23T03:20:44;6.23;;;3.17;;
287;SDS011;128;48.770;9.198;2024-03-23T03:23:10;3.63;;;2.27;;
287;SDS011;128;48.770;9.198;2024-03-23T03:25:36;5.47;;;2.50;;
287;SDS011;128;48.770;9.198;2024-03-23T03:28:02;5.50;;;2.67;;
287;SDS011;128;48.770;9.198;2024-03-23T03:30:29;4.47;;;2.27;;
287;SDS011;128;48.770;9.198;2024-03-23T03:32:54;10.30;;;3.00;;
287;SDS011;128;48.770;9.198;2024-03-23T03:35:20;4.70;;;2.63;;
287;SDS011;128;48.770;9.198;2024-03-23T03:37:46;7.23;;;3.13;;
287;SDS011;128;48.770;9.198;2024-03-23T03:40:12;5.87;;;2.53;;
287;SDS011;128;48.770;9.198;2024-03-23T03:42:40;6.60;;;2.80;;
287;SDS011;128;48.770;9.198;2024-03-23T03:45:06;8.40;;;2.23;;
287;SDS011;128;48.770;9.198;2024-03-23T03:47:32;3.87;;;2.70;;
287;SDS011;128;48.770;9.198;2024-03-23T03:49:58;10.83;;;2.80;;
287;SDS011;128;48.770;9.198;2024-03-23T03:52:24;6.83;;;2.73;;
287;SDS011;128;48.770;9.198;2024-03-23T03:54:50;4.43;;;2.53;;
287;SDS011;128;48.770;9.198;2024-03-23T03:57:16;4.03;;;2.87;;
287;SDS011;128;48.770;9.198;2024-03-23T03:59:42;4.93;;;3.10;;
287;SDS011;128;48.770;9.198;2024-03-23T04:02:08;3.87;;;2.50;;
287;SDS011;128;48.770;9.198;2024-03-23T04:04:34;15.00;;;3.33;;
287;SDS011;128;48.770;9.198;2024-03-23T04:07:00;6.70;;;3.20;;
287;SDS011;128;48.770;9.198;2024-03-23T04:09:26;5.53;;;2.60;;
287;SDS011;128;48.770;9.198;2024-03-23T04:11:52;6.27;;;2.60;;
287;SDS011;128;48.770;9.198;2024-03-23T04:14:18;4.53;;;2.80;;
287;SDS011;128;48.770;9.198;2024-03-23T04:16:44;5.40;;;2.97;;
287;SDS011;128;48.770;9.198;2024-03-23T04:19:10;7.80;;;3.20;;
287;SDS011;128;48.770;9.198;2024-03-23T04:21:37;4.10;;;2.83;;
287;SDS011;128;48.770;9.198;2024-03-23T04:24:03;5.23;;;2.67;;
287;SDS011;128;48.770;9.198;2024-03-23T04:26:30;9.87;;;2.97;;
287;SDS011;128;48.770;9.198;2024-03-23T04:28:56;6.67;;;2.60;;
287;SDS011;128;48.770;9.198;2024-03-23T04:31:21;7.90;;;3.17;;
287;SDS011;128;48.770;9.198;2024-03-23T04:33:47;4.70;;;2.83;;
287;SDS011;128;48.770;9.198;2024-03-23T04:36:13;4.90;;;2.50;;
287;SDS011;128;48.770;9.198;2024-03-23T04:38:39;8.77;;;3.40;;
287;SDS011;128;48.770;9.198;2024-03-23T04:41:06;8.00;;;2.83;;
287;SDS011;128;48.770;9.198;2024-03-23T04:43:32;3.83;;;2.40;;
287;SDS011;128;48.770;9.198;2024-03-23T04:45:59;3.80;;;2.40;;
287;SDS011;128;48.770;9.198;2024-03-23T04:48:25;3.90;;;2.60;;
287;SDS011;128;48.770;9.198;2024-03-23T04:50:54;4.93;;;3.00;;
287;SDS011;128;48.770;9.198;2024-03-23T04:53:20;9.70;;;3.33;;
287;SDS011;128;48.770;9.198;2024-03-23T04:55:48;8.43;;;3.30;;
287;SDS011;128;48.770;9.198;2024-03-23T04:58:13;5.43;;;3.60;;
287;SDS011;128;48.770;9.198;2024-03-23T05:00:39;7.63;;;4.30;;
287;SDS011;128;48.770;9.198;2024-03-23T05:03:05;17.57;;;5.50;;
287;SDS011;128;48.770;9.198;2024-03-23T05:05:31;9.43;;;5.10;;
287;SDS011;128;48.770;9.198;2024-03-23T05:07:57;12.10;;;7.10;;
287;SDS011;128;48.770;9.198;2024-03-23T05:10:24;15.20;;;6.77;;
287;SDS011;128;48.770;9.198;2024-03-23T05:12:50;17.63;;;8.13;;
287;SDS011;128;48.770;9.198;2024-03-23T05:15:16;26.40;;;11.23;;
287;SDS011;128;48.770;9.198;2024-03-23T05:17:42;19.80;;;10.00;;
287;SDS011;128;48.770;9.198;2024-03-23T05:20:08;17.43;;;10.53;;
287;SDS011;128;48.770;9.198;2024-03-23T05:22:35;20.33;;;10.17;;
287;SDS011;128;48.770;9.198;2024-03-23T05:25:01;27.97;;;12.30;;
287;SDS011;128;48.770;9.198;2024-03-23T05:27:29;33.43;;;13.47;;
287;SDS011;128;48.770;9.198;2024-03-23T05:29:55;26.50;;;14.17;;
287;SDS011;128;48.770;9.198;2024-03-23T05:32:21;32.10;;;16.67;;
287;SDS011;128;48.770;9.198;2024-03-23T05:34:47;25.47;;;13.20;;
287;SDS011;128;48.770;9.198;2024-03-23T05:37:15;25.77;;;14.07;;
287;SDS011;128;48.770;9.198;2024-03-23T05:39:41;27.50;;;14.77;;
287;SDS011;128;48.770;9.198;2024-03-23T05:42:07;29.23;;;15.27;;
287;SDS011;128;48.770;9.198;2024-03-23T05:44:33;27.43;;;14.23;;
287;SDS011;128;48.770;9.198;2024-03-23T05:46:59;30.60;;;15.37;;
287;SDS011;128;48.770;9.198;2024-03-23T05:49:25;32.60;;;15.27;;
287;SDS011;128;48.770;9.198;2024-03-23T05:51:51;28.43;;;13.93;;
287;SDS011;128;48.770;9.198;2024-03-23T05:54:17;39.63;;;14.33;;
287;SDS011;128;48.770;9.198;2024-03-23T05:56:43;24.50;;;13.50;;
287;SDS011;128;48.770;9.198;2024-03-23T05:59:09;27.77;;;12.63;;
287;SDS011;128;48.770;9.198;2024-03-23T06:01:34;21.50;;;11.23;;
287;SDS011;128;48.770;9.198;2024-03-23T06:04:00;21.40;;;10.30;;
287;SDS011;128;48.770;9.198;2024-03-23T06:06:27;16.50;;;8.53;;
287;SDS011;128;48.770;9.198;2024-03-23T06:08:55;15.13;;;7.43;;
287;SDS011;128;48.770;9.198;2024-03-23T06:11:20;15.97;;;8.70;;
287;SDS011;128;48.770;9.198;2024-03-23T06:13:46;18.00;;;7.87;;
287;SDS011;128;48.770;9.198;2024-03-23T06:16:12;14.77;;;7.20;;
287;SDS011;128;48.770;9.198;2024-03-23T06:18:39;15.20;;;6.40;;
287;SDS011;128;48.770;9.198;2024-03-23T06:21:05;12.33;;;5.70;;
287;SDS011;128;48.770;9.198;2024-03-23T06:23:31;13.47;;;5.70;;
287;SDS011;128;48.770;9.198;2024-03-23T06:25:56;9.60;;;4.70;;
287;SDS011;128;48.770;9.198;2024-03-23T06:28:22;10.47;;;5.67;;
287;SDS011;128;48.770;9.198;2024-03-23T06:30:48;18.53;;;5.03;;
287;SDS011;128;48.770;9.198;2024-03-23T06:33:14;9.00;;;3.40;;
287;SDS011;128;48.770;9.198;2024-03-23T06:35:40;5.30;;;2.80;;
287;SDS011;128;48.770;9.198;2024-03-23T06:38:06;5.87;;;2.63;;
287;SDS011;128;48.770;9.198;2024-03-23T06:40:32;6.10;;;2.80;;
287;SDS011;128;48.770;9.198;2024-03-23T06:42:58;4.00;;;2.37;;
287;SDS011;128;48.770;9.198;2024-03-23T06:45:24;4.23;;;2.00;;
287;SDS011;128;48.770;9.198;2024-03-23T06:47:50;1.87;;;1.40;;
287;SDS011;128;48.770;9.198;2024-03-23T06:50:17;3.50;;;1.70;;
287;SDS011;128;48.770;9.198;2024-03-23T06:52:43;3.47;;;1.73;;
287;SDS011;128;48.770;9.198;2024-03-23T06:55:09;3.20;;;1.40;;
287;SDS011;128;48.770;9.198;2024-03-23T06:57:34;1.60;;;1.30;;
287;SDS011;128;48.770;9.198;2024-03-23T07:00:00;1.10;;;0.87;;
287;SDS011;128;48.770;9.198;2024-03-23T07:02:26;2.07;;;1.30;;
287;SDS011;128;48.770;9.198;2024-03-23T07:04:53;1.50;;;1.00;;
287;SDS011;128;48.770;9.198;2024-03-23T07:07:19;1.73;;;1.03;;
287;SDS011;128;48.770;9.198;2024-03-23T07:09:44;1.80;;;1.10;;
287;SDS011;128;48.770;9.198;2024-03-23T07:12:10;1.77;;;0.97;;
287;SDS011;128;48.770;9.198;2024-03-23T07:14:36;2.13;;;0.90;;
287;SDS011;128;48.770;9.198;2024-03-23T07:17:02;1.17;;;0.77;;
287;SDS011;128;48.770;9.198;2024-03-23T07:19:28;1.00;;;0.70;;
287;SDS011;128;48.770;9.198;2024-03-23T07:21:54;1.10;;;0.67;;
287;SDS011;128;48.770;9.198;2024-03-23T07:24:20;1.30;;;0.90;;
287;SDS011;128;48.770;9.198;2024-03-23T07:26:46;1.77;;;0.70;;
287;SDS011;128;48.770;9.198;2024-03-23T07:29:12;1.83;;;0.80;;
287;SDS011;128;48.770;9.198;2024-03-23T07:31:38;0.93;;;0.63;;
287;SDS011;128;48.770;9.198;2024-03-23T07:34:04;1.40;;;0.70;;
287;SDS011;128;48.770;9.198;2024-03-23T07:36:30;1.20;;;0.67;;
287;SDS011;128;48.770;9.198;2024-03-23T07:38:56;1.30;;;0.80;;
287;SDS011;128;48.770;9.198;2024-03-23T07:41:22;1.87;;;0.70;;
287;SDS011;128;48.770;9.198;2024-03-23T07:43:48;1.27;;;0.80;;
287;SDS011;128;48.770;9.198;2024-03-23T07:46:15;1.97;;;0.97;;
287;SDS011;128;48.770;9.198;2024-03-23T07:48:41;1.57;;;0.70;;
287;SDS011;128;48.770;9.198;2024-03-23T07:51:08;0.90;;;0.60;;
287;SDS011;128;48.770;9.198;2024-03-23T07:53:35;1.50;;;0.87;;
287;SDS011;128;48.770;9.198;2024-03-23T07:56:02;1.90;;;0.90;;
287;SDS011;128;48.770;9.198;2024-03-23T07:58:29;1.00;;;0.83;;
287;SDS011;128;48.770;9.198;2024-03-23T08:00:55;1.40;;;0.90;;
287;SDS011;128;48.770;9.198;2024-03-23T08:03:21;1.53;;;0.83;;
287;SDS011;128;48.770;9.198;2024-03-23T08:05:47;3.60;;;0.90;;
287;SDS011;128;48.770;9.198;2024-03-23T08:08:13;1.37;;;1.17;;
287;SDS011;128;48.770;9.198;2024-03-23T08:10:49;1.53;;;1.03;;
287;SDS011;128;48.770;9.198;2024-03-23T08:13:15;1.70;;;1.10;;
287;SDS011;128;48.770;9.198;2024-03-23T08:15:41;2.33;;;1.63;;
287;SDS011;128;48.770;9.198;2024-03-23T08:18:07;2.27;;;1.40;;
287;SDS011;128;48.770;9.198;2024-03-23T08:20:32;2.10;;;1.43;;
287;SDS011;128;48.770;9.198;2024-03-23T08:22:58;1.67;;;1.30;;
287;SDS011;128;48.770;9.198;2024-03-23T08:25:24;1.90;;;0.90;;
287;SDS011;128;48.770;9.198;2024-03-23T08:27:50;1.50;;;1.10;;
287;SDS011;128;48.770;9.198;2024-03-23T08:30:17;2.73;;;1.53;;
287;SDS011;128;48.770;9.198;2024-03-23T08:32:43;4.93;;;1.20;;
287;SDS011;128;48.770;9.198;2024-03-23T08:35:09;2.03;;;1.40;;
287;SDS011;128;48.770;9.198;2024-03-23T08:37:35;2.30;;;1.50;;
287;SDS011;128;48.770;9.198;2024-03-23T08:40:01;2.20;;;1.67;;
287;SDS011;128;48.770;9.198;2024-03-23T08:42:29;1.87;;;1.37;;
287;SDS011;128;48.770;9.198;2024-03-23T08:44:55;2.80;;;1.27;;
287;SDS011;128;48.770;9.198;2024-03-23T08:47:21;2.70;;;1.30;;
287;SDS011;128;48.770;9.198;2024-03-23T08:49:47;2.33;;;1.40;;
287;SDS011;128;48.770;9.198;2024-03-23T08:52:13;2.07;;;1.60;;
287;SDS011;128;48.770;9.198;2024-03-23T08:54:39;4.97;;;1.60;;
287;SDS011;128;48.770;9.198;2024-03-23T08:57:05;5.30;;;1.10;;
287;SDS011;128;48.770;9.198;2024-03-23T08:59:32;3.80;;;1.80;;
287;SDS011;128;48.770;9.198;2024-03-23T09:01:58;2.30;;;1.50;;
287;SDS011;128;48.770;9.198;2024-03-23T09:04:23;2.50;;;1.77;;
287;SDS011;128;48.770;9.198;2024-03-23T09:06:49;2.43;;;1.43;;
287;SDS011;128;48.770;9.198;2024-03-23T09:09:16;3.27;;;1.63;;
287;SDS011;128;48.770;9.198;2024-03-23T09:11:42;2.60;;;1.63;;
287;SDS011;128;48.770;9.198;2024-03-23T09:14:08;4.73;;;1.53;;
287;SDS011;128;48.770;9.198;2024-03-23T09:16:34;4.13;;;2.10;;
287;SDS011;128;48.770;9.198;2024-03-23T09:19:00;2.80;;;1.60;;
287;SDS011;128;48.770;9.198;2024-03-23T09:21:26;4.33;;;1.77;;
287;SDS011;128;48.770;9.198;2024-03-23T09:23:52;4.90;;;1.80;;
287;SDS011;128;48.770;9.198;2024-03-23T09:26:18;6.17;;;2.83;;
287;SDS011;128;48.770;9.198;2024-03-23T09:28:44;12.50;;;3.10;;
287;SDS011;128;48.770;9.198;2024-03-23T09:31:09;5.93;;;2.27;;
287;SDS011;128;48.770;9.198;2024-03-23T09:33:39;8.60;;;2.57;;
287;SDS011;128;48.770;9.198;2024-03-23T09:36:05;9.67;;;3.43;;
287;SDS011;128;48.770;9.198;2024-03-23T09:38:32;6.63;;;3.23;;
287;SDS011;128;48.770;9.198;2024-03-23T09:40:58;12.07;;;3.47;;
287;SDS011;128;48.770;9.198;2024-03-23T09:43:26;11.20;;;3.43;;
287;SDS011;128;48.770;9.198;2024-03-23T09:45:53;13.00;;;3.87;;
287;SDS011;128;48.770;9.198;2024-03-23T09:48:19;8.33;;;2.93;;
287;SDS011;128;48.770;9.198;2024-03-23T09:50:45;14.17;;;3.13;;
287;SDS011;128;48.770;9.198;2024-03-23T09:53:12;11.30;;;4.40;;
287;SDS011;128;48.770;9.198;2024-03-23T09:55:38;15.03;;;3.40;;
287;SDS011;128;48.770;9.198;2024-03-23T09:58:04;6.67;;;3.10;;
287;SDS011;128;48.770;9.198;2024-03-23T10:00:34;5.10;;;2.10;;
287;SDS011;128;48.770;9.198;2024-03-23T10:03:00;13.90;;;3.50;;
287;SDS011;128;48.770;9.198;2024-03-23T10:05:27;5.63;;;3.07;;
287;SDS011;128;48.770;9.198;2024-03-23T10:07:53;9.13;;;3.30;;
287;SDS011;128;48.770;9.198;2024-03-23T10:10:19;6.00;;;3.90;;
287;SDS011;128;48.770;9.198;2024-03-23T10:12:49;13.97;;;3.80;;
287;SDS011;128;48.770;9.198;2024-03-23T10:15:19;9.10;;;3.70;;
287;SDS011;128;48.770;9.198;2024-03-23T10:17:46;8.10;;;3.00;;
287;SDS011;128;48.770;9.198;2024-03-23T10:20:12;8.90;;;3.30;;
287;SDS011;128;48.770;9.198;2024-03-23T10:22:38;11.47;;;3.80;;
287;SDS011;128;48.770;9.198;2024-03-23T10:25:07;9.47;;;3.57;;
287;SDS011;128;48.770;9.198;2024-03-23T10:27:33;16.63;;;3.83;;
287;SDS011;128;48.770;9.198;2024-03-23T10:30:07;11.43;;;4.13;;
287;SDS011;128;48.770;9.198;2024-03-23T10:32:33;6.57;;;3.10;;
287;SDS011;128;48.770;9.198;2024-03-23T10:35:13;8.60;;;3.10;;
287;SDS011;128;48.770;9.198;2024-03-23T10:37:39;8.63;;;2.83;;
287;SDS011;128;48.770;9.198;2024-03-23T10:40:05;5.17;;;3.40;;
287;SDS011;128;48.770;9.198;2024-03-23T10:42:31;8.00;;;2.77;;
287;SDS011;128;48.770;9.198;2024-03-23T10:44:58;7.77;;;2.90;;
287;SDS011;128;48.770;9.198;2024-03-23T10:47:24;9.23;;;3.60;;
287;SDS011;128;48.770;9.198;2024-03-23T10:49:50;12.20;;;3.90;;
287;SDS011;128;48.770;9.198;2024-03-23T10:52:16;14.07;;;3.87;;
287;SDS011;128;48.770;9.198;2024-03-23T10:54:42;14.83;;;4.10;;
287;SDS011;128;48.770;9.198;2024-03-23T10:57:11;8.73;;;4.33;;
287;SDS011;128;48.770;9.198;2024-03-23T10:59:38;15.90;;;5.70;;
287;SDS011;128;48.770;9.198;2024-03-23T11:02:04;15.60;;;4.67;;
287;SDS011;128;48.770;9.198;2024-03-23T11:04:33;8.53;;;4.53;;
287;SDS011;128;48.770;9.198;2024-03-23T11:07:00;10.43;;;3.97;;
287;SDS011;128;48.770;9.198;2024-03-23T11:14:45;17.23;;;3.17;;
287;SDS011;128;48.770;9.198;2024-03-23T11:17:13;7.17;;;3.43;;
287;SDS011;128;48.770;9.198;2024-03-23T11:19:43;12.97;;;3.33;;
287;SDS011;128;48.770;9.198;2024-03-23T11:22:09;7.50;;;3.50;;
287;SDS011;128;48.770;9.198;2024-03-23T11:24:35;7.77;;;3.60;;
287;SDS011;128;48.770;9.198;2024-03-23T11:27:02;11.40;;;4.77;;
287;SDS011;128;48.770;9.198;2024-03-23T11:29:29;7.77;;;4.00;;
287;SDS011;128;48.770;9.198;2024-03-23T11:31:55;7.13;;;3.87;;
287;SDS011;128;48.770;9.198;2024-03-23T11:34:21;6.43;;;3.40;;
287;SDS011;128;48.770;9.198;2024-03-23T11:36:48;7.63;;;2.97;;
287;SDS011;128;48.770;9.198;2024-03-23T11:39:17;7.07;;;3.90;;
287;SDS011;128;48.770;9.198;2024-03-23T11:41:50;6.50;;;2.87;;
287;SDS011;128;48.770;9.198;2024-03-23T11:44:20;6.73;;;3.60;;
287;SDS011;128;48.770;9.198;2024-03-23T11:46:47;8.60;;;2.80;;
287;SDS011;128;48.770;9.198;2024-03-23T11:49:19;10.00;;;3.03;;
287;SDS011;128;48.770;9.198;2024-03-23T11:51:47;7.90;;;2.70;;
287;SDS011;128;48.770;9.198;2024-03-23T11:54:13;6.90;;;2.70;;
287;SDS011;128;48.770;9.198;2024-03-23T11:56:38;6.50;;;2.03;;
287;SDS011;128;48.770;9.198;2024-03-23T11:59:05;15.23;;;2.80;;
287;SDS011;128;48.770;9.198;2024-03-23T12:01:32;21.63;;;2.97;;
287;SDS011;128;48.770;9.198;2024-03-23T12:03:58;12.87;;;2.23;;
287;SDS011;128;48.770;9.198;2024-03-23T12:06:24;11.00;;;2.40;;
287;SDS011;128;48.770;9.198;2024-03-23T12:08:50;3.57;;;2.07;;
287;SDS011;128;48.770;9.198;2024-03-23T12:11:17;6.60;;;2.30;;
287;SDS011;128;48.770;9.198;2024-03-23T12:13:43;5.23;;;2.10;;
287;SDS011;128;48.770;9.198;2024-03-23T12:16:20;4.27;;;2.40;;
287;SDS011;128;48.770;9.198;2024-03-23T12:18:47;6.60;;;1.63;;
287;SDS011;128;48.770;9.198;2024-03-23T12:21:14;7.53;;;1.80;;
287;SDS011;128;48.770;9.198;2024-03-23T12:23:40;12.30;;;1.63;;
287;SDS011;128;48.770;9.198;2024-03-23T12:26:06;7.83;;;2.73;;
287;SDS011;128;48.770;9.198;2024-03-23T12:28:33;5.60;;;1.70;;
287;SDS011;128;48.770;9.198;2024-03-23T12:30:59;13.70;;;2.27;;
287;SDS011;128;48.770;9.198;2024-03-23T12:33:24;5.57;;;1.50;;
287;SDS011;128;48.770;9.198;2024-03-23T12:35:50;6.33;;;2.10;;
287;SDS011;128;48.770;9.198;2024-03-23T12:38:17;8.40;;;3.27;;
287;SDS011;128;48.770;9.198;2024-03-23T12:40:46;11.10;;;2.50;;
287;SDS011;128;48.770;9.198;2024-03-23T12:43:15;8.37;;;2.20;;
287;SDS011;128;48.770;9.198;2024-03-23T12:45:45;15.27;;;2.37;;
287;SDS011;128;48.770;9.198;2024-03-23T12:48:12;15.50;;;2.37;;
287;SDS011;128;48.770;9.198;2024-03-23T12:50:38;10.53;;;2.23;;
287;SDS011;128;48.770;9.198;2024-03-23T12:53:03;17.90;;;2.50;;
287;SDS011;128;48.770;9.198;2024-03-23T12:55:29;11.27;;;2.40;;
287;SDS011;128;48.770;9.198;2024-03-23T12:57:55;7.00;;;2.10;;
287;SDS011;128;48.770;9.198;2024-03-23T13:00:21;8.73;;;1.70;;
287;SDS011;128;48.770;9.198;2024-03-23T13:02:47;10.33;;;2.07;;
287;SDS011;128;48.770;9.198;2024-03-23T13:05:14;13.03;;;2.53;;
287;SDS011;128;48.770;9.198;2024-03-23T13:07:40;16.90;;;2.90;;
287;SDS011;128;48.770;9.198;2024-03-23T13:10:06;7.60;;;1.83;;
287;SDS011;128;48.770;9.198;2024-03-23T13:12:32;8.37;;;2.20;;
287;SDS011;128;48.770;9.198;2024-03-23T13:15:01;7.73;;;2.00;;
287;SDS011;128;48.770;9.198;2024-03-23T13:17:27;19.50;;;3.10;;
287;SDS011;128;48.770;9.198;2024-03-23T13:19:54;10.30;;;3.07;;
287;SDS011;128;48.770;9.198;2024-03-23T13:22:21;16.97;;;2.90;;
287;SDS011;128;48.770;9.198;2024-03-23T13:24:47;8.77;;;2.43;;
287;SDS011;128;48.770;9.198;2024-03-23T13:27:12;8.33;;;2.50;;
287;SDS011;128;48.770;9.198;2024-03-23T13:29:38;8.27;;;2.77;;
287;SDS011;128;48.770;9.198;2024-03-23T13:32:05;7.00;;;2.37;;
287;SDS011;128;48.770;9.198;2024-03-23T13:34:31;13.43;;;2.60;;
287;SDS011;128;48.770;9.198;2024-03-23T13:36:58;12.20;;;2.50;;
287;SDS011;128;48.770;9.198;2024-03-23T13:39:24;9.60;;;1.77;;
287;SDS011;128;48.770;9.198;2024-03-23T13:41:52;9.63;;;2.30;;
287;SDS011;128;48.770;9.198;2024-03-23T13:44:18;5.43;;;1.70;;
287;SDS011;128;48.770;9.198;2024-03-23T13:46:44;6.30;;;1.67;;
287;SDS011;128;48.770;9.198;2024-03-23T13:49:18;9.00;;;2.23;;
287;SDS011;128;48.770;9.198;2024-03-23T13:51:48;7.73;;;1.87;;
287;SDS011;128;48.770;9.198;2024-03-23T13:54:14;5.13;;;1.40;;
287;SDS011;128;48.770;9.198;2024-03-23T13:56:40;8.53;;;1.90;;
287;SDS011;128;48.770;9.198;2024-03-23T13:59:06;6.47;;;1.60;;
287;SDS011;128;48.770;9.198;2024-03-23T14:01:32;4.83;;;1.60;;
287;SDS011;128;48.770;9.198;2024-03-23T14:03:58;7.47;;;1.50;;
287;SDS011;128;48.770;9.198;2024-03-23T14:06:24;6.20;;;1.47;;
287;SDS011;128;48.770;9.198;2024-03-23T14:08:50;2.90;;;1.30;;
287;SDS011;128;48.770;9.198;2024-03-23T14:11:17;2.70;;;1.00;;
287;SDS011;128;48.770;9.198;2024-03-23T14:13:43;7.60;;;1.63;;
287;SDS011;128;48.770;9.198;2024-03-23T14:16:09;6.63;;;1.93;;
287;SDS011;128;48.770;9.198;2024-03-23T14:18:35;5.80;;;1.83;;
287;SDS011;128;48.770;9.198;2024-03-23T14:21:01;8.83;;;2.03;;
287;SDS011;128;48.770;9.198;2024-03-23T14:23:28;4.20;;;1.90;;
287;SDS011;128;48.770;9.198;2024-03-23T14:25:54;7.27;;;3.30;;
287;SDS011;128;48.770;9.198;2024-03-23T14:28:21;6.53;;;2.20;;
287;SDS011;128;48.770;9.198;2024-03-23T14:30:47;10.73;;;2.00;;
287;SDS011;128;48.770;9.198;2024-03-23T14:33:14;7.50;;;2.13;;
287;SDS011;128;48.770;9.198;2024-03-23T14:35:40;7.53;;;1.63;;
287;SDS011;128;48.770;9.198;2024-03-23T14:38:06;3.47;;;1.57;;
287;SDS011;128;48.770;9.198;2024-03-23T14:40:32;2.80;;;1.70;;
287;SDS011;128;48.770;9.198;2024-03-23T14:42:58;4.13;;;1.50;;
287;SDS011;128;48.770;9.198;2024-03-23T14:45:24;2.43;;;1.50;;
287;SDS011;128;48.770;9.198;2024-03-23T14:47:50;10.13;;;1.97;;
287;SDS011;128;48.770;9.198;2024-03-23T14:50:17;5.77;;;2.00;;
287;SDS011;128;48.770;9.198;2024-03-23T14:52:46;4.67;;;1.97;;
287;SDS011;128;48.770;9.198;2024-03-23T14:55:12;5.20;;;1.73;;
287;SDS011;128;48.770;9.198;2024-03-23T14:57:38;5.40;;;2.27;;
287;SDS011;128;48.770;9.198;2024-03-23T15:00:08;5.27;;;2.23;;
287;SDS011;128;48.770;9.198;2024-03-23T15:02:36;4.90;;;1.60;;
287;SDS011;128;48.770;9.198;2024-03-23T15:05:02;2.60;;;1.60;;
287;SDS011;128;48.770;9.198;2024-03-23T15:07:29;12.83;;;2.23;;
287;SDS011;128;48.770;9.198;2024-03-23T15:09:55;3.33;;;2.03;;
287;SDS011;128;48.770;9.198;2024-03-23T15:12:21;5.90;;;2.00;;
287;SDS011;128;48.770;9.198;2024-03-23T15:14:47;3.83;;;1.63;;
287;SDS011;128;48.770;9.198;2024-03-23T15:17:13;4.67;;;1.77;;
287;SDS011;128;48.770;9.198;2024-03-23T15:19:39;5.37;;;2.10;;
287;SDS011;128;48.770;9.198;2024-03-23T15:22:06;3.90;;;1.70;;
287;SDS011;128;48.770;9.198;2024-03-23T15:24:33;3.97;;;1.60;;
287;SDS011;128;48.770;9.198;2024-03-23T15:27:00;3.43;;;1.50;;
287;SDS011;128;48.770;9.198;2024-03-23T15:29:26;4.30;;;1.70;;
287;SDS011;128;48.770;9.198;2024-03-23T15:31:52;2.80;;;1.10;;
287;SDS011;128;48.770;9.198;2024-03-23T15:34:19;5.50;;;1.47;;
287;SDS011;128;48.770;9.198;2024-03-23T15:36:46;4.17;;;1.33;;
287;SDS011;128;48.770;9.198;2024-03-23T15:39:13;6.10;;;1.77;;
287;SDS011;128;48.770;9.198;2024-03-23T15:41:39;3.93;;;1.43;;
287;SDS011;128;48.770;9.198;2024-03-23T15:44:05;4.70;;;1.40;;
287;SDS011;128;48.770;9.198;2024-03-23T15:46:31;1.60;;;1.20;;
287;SDS011;128;48.770;9.198;2024-03-23T15:48:57;4.03;;;1.80;;
287;SDS011;128;48.770;9.198;2024-03-23T15:51:23;2.10;;;1.30;;
287;SDS011;128;48.770;9.198;2024-03-23T15:53:49;3.60;;;1.57;;
287;SDS011;128;48.770;9.198;2024-03-23T15:56:17;4.00;;;1.60;;
287;SDS011;128;48.770;9.198;2024-03-23T15:58:43;2.53;;;1.40;;
287;SDS011;128;48.770;9.198;2024-03-23T16:01:09;13.33;;;1.70;;
287;SDS011;128;48.770;9.198;2024-03-23T16:03:38;10.63;;;1.50;;
287;SDS011;128;48.770;9.198;2024-03-23T16:06:04;3.57;;;1.70;;
287;SDS011;128;48.770;9.198;2024-03-23T16:08:32;4.17;;;1.53;;
287;SDS011;128;48.770;9.198;2024-03-23T16:13:27;9.63;;;1.40;;
287;SDS011;128;48.770;9.198;2024-03-23T16:15:59;2.70;;;1.10;;
287;SDS011;128;48.770;9.198;2024-03-23T16:18:28;2.23;;;1.20;;
287;SDS011;128;48.770;9.198;2024-03-23T16:20:54;2.60;;;1.10;;
287;SDS011;128;48.770;9.198;2024-03-23T16:23:20;8.80;;;1.10;;
287;SDS011;128;48.770;9.198;2024-03-23T16:25:47;5.47;;;1.17;;
287;SDS011;128;48.770;9.198;2024-03-23T16:28:20;6.30;;;0.97;;
287;SDS011;128;48.770;9.198;2024-03-23T16:30:52;3.20;;;1.97;;
287;SDS011;128;48.770;9.198;2024-03-23T16:33:18;2.93;;;1.20;;
287;SDS011;128;48.770;9.198;2024-03-23T16:35:44;4.77;;;0.93;;
287;SDS011;128;48.770;9.198;2024-03-23T16:38:10;2.80;;;1.00;;